sensor_id;sensor_type;location;lat;lon;timestamp;temperature;humidity
18690;DHT22;9782;52.930;15.562;2023-03-14T05:52:01;10.40;1.00
18690;DHT22;9782;52.930;15.562;2023-03-14T05:54:28;10.40;1.00
18690;DHT22;9782;52.930;15.562;2023-03-14T05:56:55;10.40;1.00
18690;DHT22;9782;52.930;15.562;2023-03-14T05:59:22;10.40;1.00
18690;DHT22;9782;52.930;15.562;2023-03-14T06:01:49;10.50;1.00
18690;DHT22;9782;52.930;15.562;2023-03-14T06:04:16;10.50;1.00
18690;DHT22;9782;52.930;15.562;2023-03-14T06:06:43;10.60;1.00
18690;DHT22;9782;52.930;15.562;2023-03-14T06:09:11;10.60;99.90
18690;DHT22;9782;52.930;15.562;2023-03-14T06:11:38;10.70;99.90
18690;DHT22;9782;52.930;15.562;2023-03-14T06:14:06;10.70;99.90
18690;DHT22;9782;52.930;15.562;2023-03-14T06:16:33;10.80;99.90
18690;DHT22;9782;52.930;15.562;2023-03-14T06:19:00;10.90;99.90
18690;DHT22;9782;52.930;15.562;2023-03-14T06:21:27;10.90;1.00
18690;DHT22;9782;52.930;15.562;2023-03-14T06:23:54;10.90;99.90
18690;DHT22;9782;52.930;15.562;2023-03-14T06:26:22;10.90;99.90
18690;DHT22;9782;52.930;15.562;2023-03-14T06:28:49;11.00;99.90
18690;DHT22;9782;52.930;15.562;2023-03-14T06:31:18;11.00;99.90
18690;DHT22;9782;52.930;15.562;2023-03-14T06:33:45;11.10;99.90
18690;DHT22;9782;52.930;15.562;2023-03-14T06:36:12;11.00;99.90
18690;DHT22;9782;52.930;15.562;2023-03-14T06:38:39;11.10;33.30
18690;DHT22;9782;52.930;15.562;2023-03-14T06:41:07;11.10;1.00
18690;DHT22;9782;52.930;15.562;2023-03-14T06:43:35;11.10;1.00
18690;DHT22;9782;52.930;15.562;2023-03-14T06:46:02;11.10;1.00
18690;DHT22;9782;52.930;15.562;2023-03-14T06:48:29;11.20;1.00
18690;DHT22;9782;52.930;15.562;2023-03-14T06:50:56;11.20;1.00
18690;DHT22;9782;52.930;15.562;2023-03-14T06:53:23;11.30;1.00
18690;DHT22;9782;52.930;15.562;2023-03-14T06:55:50;11.30;1.00
18690;DHT22;9782;52.930;15.562;2023-03-14T06:58:17;11.30;1.00
18690;DHT22;9782;52.930;15.562;2023-03-14T07:00:46;11.30;1.00
18690;DHT22;9782;52.930;15.562;2023-03-14T07:03:13;11.30;1.00
18690;DHT22;9782;52.930;15.562;2023-03-14T07:05:41;11.40;99.90
18690;DHT22;9782;52.930;15.562;2023-03-14T07:08:08;11.40;99.90
18690;DHT22;9782;52.930;15.562;2023-03-14T07:10:35;11.40;99.90
18690;DHT22;9782;52.930;15.562;2023-03-14T07:13:02;11.50;99.90
18690;DHT22;9782;52.930;15.562;2023-03-14T07:15:29;11.60;99.90
18690;DHT22;9782;52.930;15.562;2023-03-14T07:17:58;11.70;99.90
18690;DHT22;9782;52.930;15.562;2023-03-14T07:20:25;11.90;97.50
18690;DHT22;9782;52.930;15.562;2023-03-14T07:22:52;12.10;1.00
18690;DHT22;9782;52.930;15.562;2023-03-14T07:25:19;12.20;1.00
18690;DHT22;9782;52.930;15.562;2023-03-14T07:27:47;12.30;1.00
18690;DHT22;9782;52.930;15.562;2023-03-14T07:30:14;12.30;99.90
18690;DHT22;9782;52.930;15.562;2023-03-14T07:32:41;12.30;99.90
18690;DHT22;9782;52.930;15.562;2023-03-14T07:35:10;12.30;62.90
18690;DHT22;9782;52.930;15.562;2023-03-14T07:37:37;12.30;1.00
18690;DHT22;9782;52.930;15.562;2023-03-14T07:40:04;12.30;1.00
18690;DHT22;9782;52.930;15.562;2023-03-14T07:42:32;12.40;1.00
18690;DHT22;9782;52.930;15.562;2023-03-14T07:44:59;12.50;1.00
18690;DHT22;9782;52.930;15.562;2023-03-14T07:47:26;12.70;1.00
18690;DHT22;9782;52.930;15.562;2023-03-14T07:49:53;12.90;1.00
18690;DHT22;9782;52.930;15.562;2023-03-14T07:52:21;13.20;1.00
18690;DHT22;9782;52.930;15.562;2023-03-14T07:54:49;13.40;99.90
18690;DHT22;9782;52.930;15.562;2023-03-14T07:57:16;13.60;1.00
18690;DHT22;9782;52.930;15.562;2023-03-14T07:59:43;13.60;1.00
18690;DHT22;9782;52.930;15.562;2023-03-14T08:02:10;13.70;1.00
18690;DHT22;9782;52.930;15.562;2023-03-14T08:04:38;13.70;1.00
18690;DHT22;9782;52.930;15.562;2023-03-14T08:07:06;13.70;99.90
18690;DHT22;9782;52.930;15.562;2023-03-14T08:09:34;13.80;99.90
18690;DHT22;9782;52.930;15.562;2023-03-14T08:12:01;14.00;99.90
18690;DHT22;9782;52.930;15.562;2023-03-14T08:14:28;14.30;99.90
18690;DHT22;9782;52.930;15.562;2023-03-14T08:16:56;14.50;68.80
18690;DHT22;9782;52.930;15.562;2023-03-14T08:19:23;14.70;1.00
18690;DHT22;9782;52.930;15.562;2023-03-14T08:21:50;14.90;1.00
18690;DHT22;9782;52.930;15.562;2023-03-14T08:24:17;15.00;99.90
18690;DHT22;9782;52.930;15.562;2023-03-14T08:26:45;15.20;99.90
18690;DHT22;9782;52.930;15.562;2023-03-14T08:29:12;15.40;99.90
18690;DHT22;9782;52.930;15.562;2023-03-14T08:31:39;15.70;1.00
18690;DHT22;9782;52.930;15.562;2023-03-14T08:34:06;16.00;1.00
18690;DHT22;9782;52.930;15.562;2023-03-14T08:36:33;16.20;1.00
18690;DHT22;9782;52.930;15.562;2023-03-14T08:39:00;16.50;1.00
18690;DHT22;9782;52.930;15.562;2023-03-14T08:41:29;16.60;99.90
18690;DHT22;9782;52.930;15.562;2023-03-14T08:43:57;16.60;99.90
18690;DHT22;9782;52.930;15.562;2023-03-14T08:46:24;16.30;99.90
18690;DHT22;9782;52.930;15.562;2023-03-14T08:48:51;15.90;99.90
18690;DHT22;9782;52.930;15.562;2023-03-14T08:51:18;15.60;99.90
18690;DHT22;9782;52.930;15.562;2023-03-14T08:53:45;15.40;1.00
18690;DHT22;9782;52.930;15.562;2023-03-14T08:56:12;15.20;99.90
18690;DHT22;9782;52.930;15.562;2023-03-14T08:58:39;15.10;99.90
18690;DHT22;9782;52.930;15.562;2023-03-14T09:01:10;15.00;99.90
18690;DHT22;9782;52.930;15.562;2023-03-14T09:03:37;14.90;1.00
18690;DHT22;9782;52.930;15.562;2023-03-14T09:06:06;14.90;99.90
18690;DHT22;9782;52.930;15.562;2023-03-14T09:08:34;14.90;99.90
18690;DHT22;9782;52.930;15.562;2023-03-14T09:11:01;14.80;99.90
18690;DHT22;9782;52.930;15.562;2023-03-14T09:13:28;14.80;99.90
18690;DHT22;9782;52.930;15.562;2023-03-14T09:15:56;14.70;99.90
18690;DHT22;9782;52.930;15.562;2023-03-14T09:18:24;14.80;1.00
18690;DHT22;9782;52.930;15.562;2023-03-14T09:20:51;14.90;1.00
18690;DHT22;9782;52.930;15.562;2023-03-14T09:23:18;14.90;1.00
18690;DHT22;9782;52.930;15.562;2023-03-14T09:25:45;15.00;1.00
18690;DHT22;9782;52.930;15.562;2023-03-14T09:28:12;15.10;1.00
18690;DHT22;9782;52.930;15.562;2023-03-14T09:30:39;15.20;99.90
18690;DHT22;9782;52.930;15.562;2023-03-14T09:33:06;15.30;99.90
18690;DHT22;9782;52.930;15.562;2023-03-14T09:35:35;15.40;99.90
18690;DHT22;9782;52.930;15.562;2023-03-14T09:38:02;15.50;99.90
18690;DHT22;9782;52.930;15.562;2023-03-14T09:40:32;15.50;99.90
18690;DHT22;9782;52.930;15.562;2023-03-14T09:43:00;15.60;99.90
18690;DHT22;9782;52.930;15.562;2023-03-14T09:45:31;15.60;99.90
18690;DHT22;9782;52.930;15.562;2023-03-14T09:47:59;15.60;99.90
18690;DHT22;9782;52.930;15.562;2023-03-14T09:50:29;15.60;99.90
18690;DHT22;9782;52.930;15.562;2023-03-14T09:53:02;15.70;99.90
18690;DHT22;9782;52.930;15.562;2023-03-14T09:55:29;15.80;99.90
18690;DHT22;9782;52.930;15.562;2023-03-14T09:58:00;16.00;99.90
18690;DHT22;9782;52.930;15.562;2023-03-14T10:00:30;16.20;99.90
18690;DHT22;9782;52.930;15.562;2023-03-14T10:03:04;16.20;98.10
18690;DHT22;9782;52.930;15.562;2023-03-14T10:05:41;16.40;1.00
18690;DHT22;9782;52.930;15.562;2023-03-14T10:08:11;16.60;1.00
18690;DHT22;9782;52.930;15.562;2023-03-14T10:10:39;16.60;1.00
18690;DHT22;9782;52.930;15.562;2023-03-14T10:13:14;16.70;1.00
18690;DHT22;9782;52.930;15.562;2023-03-14T10:15:42;16.70;1.00
18690;DHT22;9782;52.930;15.562;2023-03-14T10:18:14;16.70;1.00
18690;DHT22;9782;52.930;15.562;2023-03-14T10:20:43;16.50;1.00
18690;DHT22;9782;52.930;15.562;2023-03-14T10:23:24;16.10;1.00
18690;DHT22;9782;52.930;15.562;2023-03-14T10:26:07;15.80;1.00
18690;DHT22;9782;52.930;15.562;2023-03-14T10:28:38;15.40;1.00
18690;DHT22;9782;52.930;15.562;2023-03-14T10:31:06;15.20;1.00
18690;DHT22;9782;52.930;15.562;2023-03-14T10:33:34;15.10;1.00
18690;DHT22;9782;52.930;15.562;2023-03-14T10:36:03;15.00;9.10
18690;DHT22;9782;52.930;15.562;2023-03-14T10:38:34;15.20;29.30
18690;DHT22;9782;52.930;15.562;2023-03-14T10:41:04;15.30;15.00
18690;DHT22;9782;52.930;15.562;2023-03-14T10:43:41;15.50;1.00
18690;DHT22;9782;52.930;15.562;2023-03-14T10:46:11;15.80;1.00
18690;DHT22;9782;52.930;15.562;2023-03-14T10:48:39;15.90;1.00
18690;DHT22;9782;52.930;15.562;2023-03-14T10:51:09;16.00;1.00
18690;DHT22;9782;52.930;15.562;2023-03-14T10:53:44;16.10;1.00
18690;DHT22;9782;52.930;15.562;2023-03-14T10:56:12;16.10;1.00
18690;DHT22;9782;52.930;15.562;2023-03-14T10:58:42;16.00;1.00
18690;DHT22;9782;52.930;15.562;2023-03-14T11:01:27;15.80;1.00
18690;DHT22;9782;52.930;15.562;2023-03-14T11:03:59;15.60;1.00
18690;DHT22;9782;52.930;15.562;2023-03-14T11:06:35;15.40;1.00
18690;DHT22;9782;52.930;15.562;2023-03-14T11:09:07;15.20;1.00
18690;DHT22;9782;52.930;15.562;2023-03-14T11:11:39;15.00;1.00
18690;DHT22;9782;52.930;15.562;2023-03-14T11:14:17;14.90;1.00
18690;DHT22;9782;52.930;15.562;2023-03-14T11:16:53;14.80;1.00
18690;DHT22;9782;52.930;15.562;2023-03-14T11:19:42;14.70;33.30
18690;DHT22;9782;52.930;15.562;2023-03-14T11:22:18;14.60;91.40
18690;DHT22;9782;52.930;15.562;2023-03-14T11:25:04;14.50;94.60
18690;DHT22;9782;52.930;15.562;2023-03-14T11:27:40;14.40;99.90
18690;DHT22;9782;52.930;15.562;2023-03-14T11:30:17;14.40;99.90
18690;DHT22;9782;52.930;15.562;2023-03-14T11:32:46;14.50;99.90
18690;DHT22;9782;52.930;15.562;2023-03-14T11:35:23;14.70;99.90
18690;DHT22;9782;52.930;15.562;2023-03-14T11:37:54;15.00;99.90
18690;DHT22;9782;52.930;15.562;2023-03-14T11:40:26;15.20;99.90
18690;DHT22;9782;52.930;15.562;2023-03-14T11:42:59;15.50;49.60
18690;DHT22;9782;52.930;15.562;2023-03-14T11:45:31;15.60;1.00
18690;DHT22;9782;52.930;15.562;2023-03-14T11:48:20;15.70;1.00
18690;DHT22;9782;52.930;15.562;2023-03-14T11:50:51;15.70;1.00
18690;DHT22;9782;52.930;15.562;2023-03-14T11:53:22;15.70;1.00
18690;DHT22;9782;52.930;15.562;2023-03-14T11:55:54;15.60;1.00
18690;DHT22;9782;52.930;15.562;2023-03-14T11:58:23;15.50;1.00
18690;DHT22;9782;52.930;15.562;2023-03-14T12:00:53;15.30;1.00
18690;DHT22;9782;52.930;15.562;2023-03-14T12:03:28;15.20;1.00
18690;DHT22;9782;52.930;15.562;2023-03-14T12:06:05;15.10;1.00
18690;DHT22;9782;52.930;15.562;2023-03-14T12:08:46;15.00;1.00
18690;DHT22;9782;52.930;15.562;2023-03-14T12:11:19;15.00;1.00
18690;DHT22;9782;52.930;15.562;2023-03-14T12:13:49;15.20;1.00
18690;DHT22;9782;52.930;15.562;2023-03-14T12:16:33;15.40;1.00
18690;DHT22;9782;52.930;15.562;2023-03-14T12:19:21;15.50;1.00
18690;DHT22;9782;52.930;15.562;2023-03-14T12:21:53;15.60;1.00
18690;DHT22;9782;52.930;15.562;2023-03-14T12:24:24;15.60;1.00
18690;DHT22;9782;52.930;15.562;2023-03-14T12:26:55;15.60;1.00
18690;DHT22;9782;52.930;15.562;2023-03-14T12:29:22;15.50;1.00
18690;DHT22;9782;52.930;15.562;2023-03-14T12:32:12;15.50;1.00
18690;DHT22;9782;52.930;15.562;2023-03-14T12:34:48;15.40;1.00
18690;DHT22;9782;52.930;15.562;2023-03-14T12:37:22;15.30;1.00
18690;DHT22;9782;52.930;15.562;2023-03-14T12:40:12;15.20;1.00
18690;DHT22;9782;52.930;15.562;2023-03-14T12:42:57;15.10;1.00
18690;DHT22;9782;52.930;15.562;2023-03-14T12:45:28;15.00;1.00
18690;DHT22;9782;52.930;15.562;2023-03-14T12:48:03;15.00;1.00
18690;DHT22;9782;52.930;15.562;2023-03-14T12:50:35;15.00;1.00
18690;DHT22;9782;52.930;15.562;2023-03-14T12:56:02;14.80;1.00
18690;DHT22;9782;52.930;15.562;2023-03-14T12:58:36;14.80;1.00
18690;DHT22;9782;52.930;15.562;2023-03-14T13:01:06;14.80;1.00
18690;DHT22;9782;52.930;15.562;2023-03-14T13:03:40;14.80;1.00
18690;DHT22;9782;52.930;15.562;2023-03-14T13:06:10;14.70;1.00
18690;DHT22;9782;52.930;15.562;2023-03-14T13:08:40;14.60;9.60
18690;DHT22;9782;52.930;15.562;2023-03-14T13:11:10;14.50;99.90
18690;DHT22;9782;52.930;15.562;2023-03-14T13:13:45;14.40;99.90
18690;DHT22;9782;52.930;15.562;2023-03-14T13:16:16;14.60;99.90
18690;DHT22;9782;52.930;15.562;2023-03-14T13:18:44;14.70;99.90
18690;DHT22;9782;52.930;15.562;2023-03-14T13:21:14;14.70;99.90
18690;DHT22;9782;52.930;15.562;2023-03-14T13:23:55;14.90;99.90
18690;DHT22;9782;52.930;15.562;2023-03-14T13:26:24;14.90;47.20
18690;DHT22;9782;52.930;15.562;2023-03-14T13:28:55;14.90;1.00
18690;DHT22;9782;52.930;15.562;2023-03-14T13:31:23;15.00;1.00
18690;DHT22;9782;52.930;15.562;2023-03-14T13:34:01;15.00;1.00
18690;DHT22;9782;52.930;15.562;2023-03-14T13:36:28;15.00;1.00
18690;DHT22;9782;52.930;15.562;2023-03-14T13:38:57;15.10;1.00
18690;DHT22;9782;52.930;15.562;2023-03-14T13:41:24;15.10;1.00
18690;DHT22;9782;52.930;15.562;2023-03-14T13:44:01;15.20;1.00
18690;DHT22;9782;52.930;15.562;2023-03-14T13:46:29;15.20;1.00
18690;DHT22;9782;52.930;15.562;2023-03-14T13:48:58;15.20;1.00
18690;DHT22;9782;52.930;15.562;2023-03-14T13:51:27;15.30;1.00
18690;DHT22;9782;52.930;15.562;2023-03-14T13:53:57;15.30;1.00
18690;DHT22;9782;52.930;15.562;2023-03-14T13:56:27;15.30;1.00
18690;DHT22;9782;52.930;15.562;2023-03-14T13:58:54;15.40;1.00
18690;DHT22;9782;52.930;15.562;2023-03-14T14:01:25;15.40;1.00
18690;DHT22;9782;52.930;15.562;2023-03-14T14:03:56;15.40;1.00
18690;DHT22;9782;52.930;15.562;2023-03-14T14:06:27;15.50;1.00
18690;DHT22;9782;52.930;15.562;2023-03-14T14:08:56;15.50;1.00
18690;DHT22;9782;52.930;15.562;2023-03-14T14:11:33;15.50;1.00
18690;DHT22;9782;52.930;15.562;2023-03-14T14:14:02;15.50;1.00
18690;DHT22;9782;52.930;15.562;2023-03-14T14:16:32;15.60;1.00
18690;DHT22;9782;52.930;15.562;2023-03-14T14:19:00;15.60;1.00
18690;DHT22;9782;52.930;15.562;2023-03-14T14:21:28;15.70;1.00
18690;DHT22;9782;52.930;15.562;2023-03-14T14:23:56;15.70;1.00
18690;DHT22;9782;52.930;15.562;2023-03-14T14:26:23;15.50;1.00
18690;DHT22;9782;52.930;15.562;2023-03-14T14:29:00;15.30;1.00
18690;DHT22;9782;52.930;15.562;2023-03-14T14:31:28;15.10;1.00
18690;DHT22;9782;52.930;15.562;2023-03-14T14:33:57;15.00;1.00
18690;DHT22;9782;52.930;15.562;2023-03-14T14:36:27;14.90;1.00
18690;DHT22;9782;52.930;15.562;2023-03-14T14:38:59;14.90;1.00
18690;DHT22;9782;52.930;15.562;2023-03-14T14:41:28;14.80;1.00
18690;DHT22;9782;52.930;15.562;2023-03-14T14:43:56;14.80;1.00
18690;DHT22;9782;52.930;15.562;2023-03-14T14:46:27;14.80;1.00
18690;DHT22;9782;52.930;15.562;2023-03-14T14:49:01;14.80;1.00
18690;DHT22;9782;52.930;15.562;2023-03-14T14:51:34;14.70;1.00
18690;DHT22;9782;52.930;15.562;2023-03-14T14:54:15;14.70;1.00
18690;DHT22;9782;52.930;15.562;2023-03-14T14:56:47;14.70;1.00
18690;DHT22;9782;52.930;15.562;2023-03-14T14:59:21;14.70;1.00
18690;DHT22;9782;52.930;15.562;2023-03-14T15:01:48;14.60;1.00
18690;DHT22;9782;52.930;15.562;2023-03-14T15:04:18;14.60;1.00
18690;DHT22;9782;52.930;15.562;2023-03-14T15:06:46;14.70;1.00
18690;DHT22;9782;52.930;15.562;2023-03-14T15:09:15;14.80;1.00
18690;DHT22;9782;52.930;15.562;2023-03-14T15:11:43;14.90;1.00
18690;DHT22;9782;52.930;15.562;2023-03-14T15:14:10;15.00;1.00
18690;DHT22;9782;52.930;15.562;2023-03-14T15:16:38;15.10;1.00
18690;DHT22;9782;52.930;15.562;2023-03-14T15:19:11;15.10;1.00
18690;DHT22;9782;52.930;15.562;2023-03-14T15:21:40;15.00;1.00
18690;DHT22;9782;52.930;15.562;2023-03-14T15:24:09;14.80;1.00
18690;DHT22;9782;52.930;15.562;2023-03-14T15:26:36;14.60;1.00
18690;DHT22;9782;52.930;15.562;2023-03-14T15:29:03;14.40;1.00
18690;DHT22;9782;52.930;15.562;2023-03-14T15:31:33;14.30;1.00
18690;DHT22;9782;52.930;15.562;2023-03-14T15:34:02;14.10;3.80
18690;DHT22;9782;52.930;15.562;2023-03-14T15:36:31;14.00;17.10
18690;DHT22;9782;52.930;15.562;2023-03-14T15:39:00;13.90;93.40
18690;DHT22;9782;52.930;15.562;2023-03-14T15:41:28;13.80;99.90
18690;DHT22;9782;52.930;15.562;2023-03-14T15:43:55;13.70;99.90
18690;DHT22;9782;52.930;15.562;2023-03-14T15:46:22;13.70;99.90
18690;DHT22;9782;52.930;15.562;2023-03-14T15:48:50;13.70;99.90
18690;DHT22;9782;52.930;15.562;2023-03-14T15:51:18;13.60;99.90
18690;DHT22;9782;52.930;15.562;2023-03-14T15:53:45;13.70;99.90
18690;DHT22;9782;52.930;15.562;2023-03-14T15:56:15;13.70;99.90
18690;DHT22;9782;52.930;15.562;2023-03-14T15:58:43;13.80;99.90
18690;DHT22;9782;52.930;15.562;2023-03-14T16:01:12;13.90;99.90
18690;DHT22;9782;52.930;15.562;2023-03-14T16:03:41;14.00;99.90
18690;DHT22;9782;52.930;15.562;2023-03-14T16:06:09;14.00;99.90
18690;DHT22;9782;52.930;15.562;2023-03-14T16:08:36;14.00;99.90
18690;DHT22;9782;52.930;15.562;2023-03-14T16:11:03;13.90;99.90
18690;DHT22;9782;52.930;15.562;2023-03-14T16:13:32;13.80;99.90
18690;DHT22;9782;52.930;15.562;2023-03-14T16:16:00;13.60;99.90
18690;DHT22;9782;52.930;15.562;2023-03-14T16:18:29;13.50;99.90
18690;DHT22;9782;52.930;15.562;2023-03-14T16:20:58;13.40;99.90
18690;DHT22;9782;52.930;15.562;2023-03-14T16:23:26;13.40;99.90
18690;DHT22;9782;52.930;15.562;2023-03-14T16:25:54;13.30;99.90
18690;DHT22;9782;52.930;15.562;2023-03-14T16:28:22;13.20;99.90
18690;DHT22;9782;52.930;15.562;2023-03-14T16:30:50;13.10;1.00
18690;DHT22;9782;52.930;15.562;2023-03-14T16:33:18;13.10;1.00
18690;DHT22;9782;52.930;15.562;2023-03-14T16:35:54;13.10;1.00
18690;DHT22;9782;52.930;15.562;2023-03-14T16:38:22;12.90;1.00
18690;DHT22;9782;52.930;15.562;2023-03-14T16:40:57;12.80;1.00
18690;DHT22;9782;52.930;15.562;2023-03-14T16:43:24;12.70;1.00
18690;DHT22;9782;52.930;15.562;2023-03-14T16:45:53;12.50;1.00
18690;DHT22;9782;52.930;15.562;2023-03-14T16:48:20;12.50;1.00
18690;DHT22;9782;52.930;15.562;2023-03-14T16:50:49;12.50;1.00
18690;DHT22;9782;52.930;15.562;2023-03-14T16:53:16;12.50;1.00
18690;DHT22;9782;52.930;15.562;2023-03-14T16:55:44;12.50;1.00
18690;DHT22;9782;52.930;15.562;2023-03-14T16:58:11;12.50;1.00
18690;DHT22;9782;52.930;15.562;2023-03-14T17:00:38;12.50;1.00
18690;DHT22;9782;52.930;15.562;2023-03-14T17:03:07;12.50;1.00
18690;DHT22;9782;52.930;15.562;2023-03-14T17:05:35;12.40;1.00
18690;DHT22;9782;52.930;15.562;2023-03-14T17:08:02;12.40;1.00
18690;DHT22;9782;52.930;15.562;2023-03-14T17:10:29;12.40;1.00
18690;DHT22;9782;52.930;15.562;2023-03-14T17:12:56;12.40;1.00
18690;DHT22;9782;52.930;15.562;2023-03-14T17:15:23;12.40;1.00
18690;DHT22;9782;52.930;15.562;2023-03-14T17:17:50;12.40;14.10
18690;DHT22;9782;52.930;15.562;2023-03-14T17:20:18;12.00;1.00
18690;DHT22;9782;52.930;15.562;2023-03-14T17:22:45;11.20;1.00
18690;DHT22;9782;52.930;15.562;2023-03-14T17:25:12;10.30;22.70
18690;DHT22;9782;52.930;15.562;2023-03-14T17:27:39;9.50;11.60
18690;DHT22;9782;52.930;15.562;2023-03-14T17:30:08;8.90;99.90
18690;DHT22;9782;52.930;15.562;2023-03-14T17:32:35;8.40;99.90
18690;DHT22;9782;52.930;15.562;2023-03-14T17:35:03;7.80;1.00
18690;DHT22;9782;52.930;15.562;2023-03-14T17:37:31;7.30;1.00
18690;DHT22;9782;52.930;15.562;2023-03-14T17:39:58;7.00;99.90
18690;DHT22;9782;52.930;15.562;2023-03-14T17:42:26;6.70;99.90
18690;DHT22;9782;52.930;15.562;2023-03-14T17:44:53;6.50;1.00
18690;DHT22;9782;52.930;15.562;2023-03-14T17:47:20;6.20;99.90
18690;DHT22;9782;52.930;15.562;2023-03-14T17:49:47;6.00;99.90
18690;DHT22;9782;52.930;15.562;2023-03-14T17:52:14;5.70;99.90
18690;DHT22;9782;52.930;15.562;2023-03-14T17:54:42;5.40;1.00
18690;DHT22;9782;52.930;15.562;2023-03-14T17:57:09;5.20;1.00
18690;DHT22;9782;52.930;15.562;2023-03-14T17:59:36;4.90;1.00
18690;DHT22;9782;52.930;15.562;2023-03-14T18:02:04;4.50;99.90
18690;DHT22;9782;52.930;15.562;2023-03-14T18:04:31;4.10;1.00
18690;DHT22;9782;52.930;15.562;2023-03-14T18:06:58;3.80;1.00
18690;DHT22;9782;52.930;15.562;2023-03-14T18:09:25;3.60;99.90
18690;DHT22;9782;52.930;15.562;2023-03-14T18:11:53;3.60;99.90
18690;DHT22;9782;52.930;15.562;2023-03-14T18:14:20;3.40;1.00
18690;DHT22;9782;52.930;15.562;2023-03-14T18:16:47;3.20;1.00
18690;DHT22;9782;52.930;15.562;2023-03-14T18:19:16;3.10;99.90
18690;DHT22;9782;52.930;15.562;2023-03-14T18:21:43;3.00;99.90
18690;DHT22;9782;52.930;15.562;2023-03-14T18:24:12;2.90;1.00
18690;DHT22;9782;52.930;15.562;2023-03-14T18:26:39;2.80;1.00
18690;DHT22;9782;52.930;15.562;2023-03-14T18:29:07;2.70;1.00
18690;DHT22;9782;52.930;15.562;2023-03-14T18:31:34;2.70;47.30
18690;DHT22;9782;52.930;15.562;2023-03-14T18:34:01;2.60;99.90
18690;DHT22;9782;52.930;15.562;2023-03-14T18:36:28;2.50;99.90
18690;DHT22;9782;52.930;15.562;2023-03-14T18:38:56;2.40;99.90
18690;DHT22;9782;52.930;15.562;2023-03-14T18:41:24;2.30;1.00
18690;DHT22;9782;52.930;15.562;2023-03-14T18:43:51;2.40;1.00
18690;DHT22;9782;52.930;15.562;2023-03-14T18:46:20;2.40;74.40
18690;DHT22;9782;52.930;15.562;2023-03-14T18:48:48;2.30;99.90
18690;DHT22;9782;52.930;15.562;2023-03-14T18:51:22;2.20;99.90
18690;DHT22;9782;52.930;15.562;2023-03-14T18:53:51;2.60;1.00
18690;DHT22;9782;52.930;15.562;2023-03-14T18:56:19;2.70;1.00
18690;DHT22;9782;52.930;15.562;2023-03-14T18:58:46;2.20;1.00
18690;DHT22;9782;52.930;15.562;2023-03-14T19:01:14;2.50;1.00
18690;DHT22;9782;52.930;15.562;2023-03-14T19:03:44;2.20;1.00
18690;DHT22;9782;52.930;15.562;2023-03-14T19:06:13;2.50;99.90
18690;DHT22;9782;52.930;15.562;2023-03-14T19:08:43;2.50;99.90
18690;DHT22;9782;52.930;15.562;2023-03-14T19:11:11;2.20;99.90
18690;DHT22;9782;52.930;15.562;2023-03-14T19:13:40;2.60;1.00
18690;DHT22;9782;52.930;15.562;2023-03-14T19:16:13;2.60;1.00
18690;DHT22;9782;52.930;15.562;2023-03-14T19:18:41;2.30;96.30
18690;DHT22;9782;52.930;15.562;2023-03-14T19:21:11;2.40;99.90
18690;DHT22;9782;52.930;15.562;2023-03-14T19:23:40;2.30;99.90
18690;DHT22;9782;52.930;15.562;2023-03-14T19:26:08;2.50;99.90
18690;DHT22;9782;52.930;15.562;2023-03-14T19:28:35;2.10;99.90
18690;DHT22;9782;52.930;15.562;2023-03-14T19:31:03;2.00;99.90
18690;DHT22;9782;52.930;15.562;2023-03-14T19:33:31;2.10;99.90
18690;DHT22;9782;52.930;15.562;2023-03-14T19:35:58;2.20;99.90
18690;DHT22;9782;52.930;15.562;2023-03-14T19:38:28;2.40;99.90
18690;DHT22;9782;52.930;15.562;2023-03-14T19:40:56;2.10;99.90
18690;DHT22;9782;52.930;15.562;2023-03-14T19:43:24;2.00;1.00
18690;DHT22;9782;52.930;15.562;2023-03-14T19:45:53;2.50;1.00
18690;DHT22;9782;52.930;15.562;2023-03-14T19:48:20;2.10;1.00
18690;DHT22;9782;52.930;15.562;2023-03-14T19:50:54;2.10;1.00
18690;DHT22;9782;52.930;15.562;2023-03-14T19:53:21;2.20;1.00
18690;DHT22;9782;52.930;15.562;2023-03-14T19:55:50;2.20;1.00
18690;DHT22;9782;52.930;15.562;2023-03-14T19:58:17;2.20;1.00
18690;DHT22;9782;52.930;15.562;2023-03-14T20:00:44;2.20;1.00
18690;DHT22;9782;52.930;15.562;2023-03-14T20:03:11;2.20;1.00
18690;DHT22;9782;52.930;15.562;2023-03-14T20:05:39;2.20;1.00
18690;DHT22;9782;52.930;15.562;2023-03-14T20:08:09;2.20;99.90
18690;DHT22;9782;52.930;15.562;2023-03-14T20:10:36;2.30;1.00
18690;DHT22;9782;52.930;15.562;2023-03-14T20:13:05;2.30;1.00
18690;DHT22;9782;52.930;15.562;2023-03-14T20:15:31;2.30;1.00
18690;DHT22;9782;52.930;15.562;2023-03-14T20:17:58;2.40;99.90
18690;DHT22;9782;52.930;15.562;2023-03-14T20:20:26;2.40;99.90
18690;DHT22;9782;52.930;15.562;2023-03-14T20:22:53;2.40;99.90
18690;DHT22;9782;52.930;15.562;2023-03-14T20:25:20;2.40;99.90
18690;DHT22;9782;52.930;15.562;2023-03-14T20:27:48;2.50;99.90
18690;DHT22;9782;52.930;15.562;2023-03-14T20:30:19;2.50;99.90
18690;DHT22;9782;52.930;15.562;2023-03-14T20:32:48;2.50;99.90
18690;DHT22;9782;52.930;15.562;2023-03-14T20:35:16;2.50;99.90
18690;DHT22;9782;52.930;15.562;2023-03-14T20:37:49;2.50;99.90
18690;DHT22;9782;52.930;15.562;2023-03-14T20:40:17;2.50;99.90
18690;DHT22;9782;52.930;15.562;2023-03-14T20:42:45;2.60;99.90
18690;DHT22;9782;52.930;15.562;2023-03-14T20:45:12;2.60;99.90
18690;DHT22;9782;52.930;15.562;2023-03-14T20:47:40;2.60;99.90
18690;DHT22;9782;52.930;15.562;2023-03-14T20:50:09;2.60;99.90
18690;DHT22;9782;52.930;15.562;2023-03-14T20:52:36;2.70;99.90
18690;DHT22;9782;52.930;15.562;2023-03-14T20:55:03;2.70;1.00
18690;DHT22;9782;52.930;15.562;2023-03-14T20:57:30;2.70;1.00
18690;DHT22;9782;52.930;15.562;2023-03-14T20:59:57;2.70;1.00
18690;DHT22;9782;52.930;15.562;2023-03-14T21:02:24;2.80;1.00
18690;DHT22;9782;52.930;15.562;2023-03-14T21:04:53;2.80;1.00
18690;DHT22;9782;52.930;15.562;2023-03-14T21:07:22;2.80;1.00
18690;DHT22;9782;52.930;15.562;2023-03-14T21:09:49;2.80;1.00
18690;DHT22;9782;52.930;15.562;2023-03-14T21:12:16;2.70;1.00
18690;DHT22;9782;52.930;15.562;2023-03-14T21:14:43;2.70;1.00
18690;DHT22;9782;52.930;15.562;2023-03-14T21:17:10;2.70;1.00
18690;DHT22;9782;52.930;15.562;2023-03-14T21:19:37;2.70;1.00
18690;DHT22;9782;52.930;15.562;2023-03-14T21:22:06;2.70;1.00
18690;DHT22;9782;52.930;15.562;2023-03-14T21:24:33;2.80;1.00
18690;DHT22;9782;52.930;15.562;2023-03-14T21:27:00;2.80;1.00
18690;DHT22;9782;52.930;15.562;2023-03-14T21:29:27;2.70;1.00
18690;DHT22;9782;52.930;15.562;2023-03-14T21:31:54;2.80;1.00
18690;DHT22;9782;52.930;15.562;2023-03-14T21:34:21;2.80;1.00
18690;DHT22;9782;52.930;15.562;2023-03-14T21:36:52;2.80;1.00
18690;DHT22;9782;52.930;15.562;2023-03-14T21:39:20;2.70;1.00
18690;DHT22;9782;52.930;15.562;2023-03-14T21:41:47;2.80;1.00
18690;DHT22;9782;52.930;15.562;2023-03-14T21:44:14;2.70;1.00
18690;DHT22;9782;52.930;15.562;2023-03-14T21:46:43;2.80;1.00
18690;DHT22;9782;52.930;15.562;2023-03-14T21:49:11;2.70;1.00
18690;DHT22;9782;52.930;15.562;2023-03-14T21:51:38;2.70;1.00